createdAt,value
2019-05-25T00:01:18.074Z,4.95
2019-05-25T00:03:45.620Z,5.03
2019-05-25T00:06:13.212Z,5.30
2019-05-25T00:08:40.758Z,4.55
2019-05-25T00:11:08.308Z,5.08
2019-05-25T00:13:35.837Z,4.47
2019-05-25T00:16:03.372Z,4.55
2019-05-25T00:18:30.921Z,5.08
2019-05-25T00:20:58.448Z,5.55
2019-05-25T00:23:26.026Z,5.35
2019-05-25T00:25:53.648Z,5.87
2019-05-25T00:28:21.191Z,5.42
2019-05-25T00:30:48.787Z,4.97
2019-05-25T00:33:16.407Z,5.33
2019-05-25T00:35:44.016Z,6.08
2019-05-25T00:38:11.924Z,6.22
2019-05-25T00:40:39.453Z,6.40
2019-05-25T00:43:07.003Z,5.25
2019-05-25T00:45:34.538Z,5.47
2019-05-25T00:48:02.075Z,5.50
2019-05-25T00:50:29.623Z,5.05
2019-05-25T00:52:57.180Z,4.92
2019-05-25T00:55:24.725Z,4.80
2019-05-25T00:57:52.279Z,4.58
2019-05-25T01:00:19.809Z,5.10
2019-05-25T01:02:47.403Z,4.53
2019-05-25T01:05:14.986Z,4.75
2019-05-25T01:07:42.575Z,4.70
2019-05-25T01:10:10.065Z,4.42
2019-05-25T01:12:37.625Z,4.20
2019-05-25T01:15:06.219Z,3.83
2019-05-25T01:17:33.751Z,4.60
2019-05-25T01:20:01.322Z,4.35
2019-05-25T01:22:30.022Z,4.83
2019-05-25T01:24:57.570Z,5.47
2019-05-25T01:27:25.111Z,5.37
2019-05-25T01:29:52.656Z,4.78
2019-05-25T01:32:20.192Z,4.30
2019-05-25T01:34:47.736Z,4.35
2019-05-25T01:37:15.261Z,4.45
2019-05-25T01:39:42.824Z,4.40
2019-05-25T01:42:10.354Z,5.28
2019-05-25T01:44:37.922Z,5.10
2019-05-25T01:47:05.442Z,4.75
2019-05-25T01:49:32.996Z,5.67
2019-05-25T01:52:00.519Z,5.92
2019-05-25T01:54:28.074Z,5.53
2019-05-25T01:56:55.610Z,5.17
2019-05-25T01:59:23.183Z,5.30
2019-05-25T02:01:50.712Z,4.80
2019-05-25T02:04:18.269Z,5.37
2019-05-25T02:06:45.800Z,4.97
2019-05-25T02:09:13.351Z,5.35
2019-05-25T02:11:40.890Z,4.53
2019-05-25T02:14:08.458Z,4.80
2019-05-25T02:16:35.999Z,5.00
2019-05-25T02:19:03.560Z,4.80
2019-05-25T02:21:31.133Z,5.03
2019-05-25T02:23:58.683Z,5.72
2019-05-25T02:26:26.213Z,6.17
2019-05-25T02:28:53.735Z,5.65
2019-05-25T02:31:21.281Z,6.30
2019-05-25T02:33:48.819Z,5.72
2019-05-25T02:36:16.386Z,5.35
2019-05-25T02:38:43.903Z,5.12
2019-05-25T02:41:11.528Z,4.55
2019-05-25T02:43:39.063Z,4.90
2019-05-25T02:46:06.626Z,4.95
2019-05-25T02:48:34.149Z,4.70
2019-05-25T02:51:02.768Z,5.37
2019-05-25T02:53:30.304Z,4.87
2019-05-25T02:55:57.861Z,5.40
2019-05-25T02:58:25.399Z,5.47
2019-05-25T03:00:52.958Z,5.03
2019-05-25T03:03:20.493Z,4.40
2019-05-25T03:05:48.056Z,4.92
2019-05-25T03:08:15.581Z,4.33
2019-05-25T03:10:43.145Z,5.00
2019-05-25T03:13:10.669Z,4.80
2019-05-25T03:15:38.231Z,4.55
2019-05-25T03:18:05.791Z,4.72
2019-05-25T03:20:33.335Z,4.90
2019-05-25T03:23:01.946Z,4.20
2019-05-25T03:25:29.504Z,4.75
2019-05-25T03:27:57.023Z,4.12
2019-05-25T03:30:24.580Z,4.47
2019-05-25T03:32:52.115Z,5.17
2019-05-25T03:35:19.673Z,5.00
2019-05-25T03:37:47.205Z,4.65
2019-05-25T03:40:14.764Z,5.00
2019-05-25T03:42:42.298Z,5.08
2019-05-25T03:45:09.840Z,5.08
2019-05-25T03:47:37.393Z,4.45
2019-05-25T03:50:04.916Z,4.60
2019-05-25T03:52:32.478Z,4.40
2019-05-25T03:55:00.030Z,4.87
2019-05-25T03:57:27.576Z,4.42
2019-05-25T03:59:55.113Z,4.95
2019-05-25T04:02:22.670Z,4.53
2019-05-25T04:04:51.366Z,5.00
2019-05-25T04:07:18.915Z,4.53
2019-05-25T04:09:46.455Z,4.37
2019-05-25T04:12:14.971Z,4.35
2019-05-25T04:14:42.509Z,5.05
2019-05-25T04:17:10.090Z,4.58
2019-05-25T04:19:37.618Z,5.25
2019-05-25T04:22:06.253Z,4.97
2019-05-25T04:24:34.993Z,4.97
2019-05-25T04:27:02.536Z,4.30
2019-05-25T04:29:30.062Z,4.62
2019-05-25T04:31:57.606Z,4.87
2019-05-25T04:34:25.134Z,4.95
2019-05-25T04:36:52.692Z,5.05
2019-05-25T04:39:20.217Z,5.25
2019-05-25T04:41:47.736Z,5.65
2019-05-25T04:44:15.285Z,4.78
2019-05-25T04:46:42.808Z,5.03
2019-05-25T04:49:10.369Z,5.15
2019-05-25T04:51:37.885Z,4.58
2019-05-25T04:54:05.435Z,5.12
2019-05-25T04:56:39.432Z,4.97
2019-05-25T04:59:02.284Z,5.25
2019-05-25T05:01:29.836Z,6.28
2019-05-25T05:03:57.401Z,6.83
2019-05-25T05:06:24.983Z,5.58
2019-05-25T05:08:52.550Z,5.90
2019-05-25T05:11:20.079Z,5.58
2019-05-25T05:13:47.632Z,4.40
2019-05-25T05:16:15.159Z,4.62
2019-05-25T05:18:42.715Z,4.53
2019-05-25T05:21:10.238Z,5.00
2019-05-25T05:23:37.802Z,5.47
2019-05-25T05:26:05.344Z,5.33
2019-05-25T05:28:32.892Z,5.05
2019-05-25T05:31:00.434Z,5.10
2019-05-25T05:33:27.999Z,6.25
2019-05-25T05:35:55.518Z,5.83
2019-05-25T05:38:23.071Z,5.92
2019-05-25T05:40:50.607Z,5.47
2019-05-25T05:43:18.145Z,5.65
2019-05-25T05:45:45.698Z,5.80
2019-05-25T05:48:13.250Z,5.70
2019-05-25T05:50:40.774Z,5.90
2019-05-25T05:53:08.366Z,6.20
2019-05-25T05:55:35.924Z,5.28
2019-05-25T05:58:03.489Z,4.92
2019-05-25T06:00:31.030Z,4.83
2019-05-25T06:02:58.574Z,5.25
2019-05-25T06:05:26.107Z,5.60
2019-05-25T06:07:53.661Z,6.03
2019-05-25T06:10:21.213Z,5.20
2019-05-25T06:12:48.744Z,4.28
2019-05-25T06:15:16.313Z,4.72
2019-05-25T06:17:43.851Z,12.10
2019-05-25T06:20:11.432Z,10.68
2019-05-25T06:22:39.001Z,16.75
2019-05-25T06:25:06.576Z,10.53
2019-05-25T06:30:00.992Z,5.65
2019-05-25T06:32:28.545Z,5.20
2019-05-25T06:34:56.105Z,5.75
2019-05-25T06:37:23.651Z,13.22
2019-05-25T06:39:51.228Z,13.00
2019-05-25T06:42:18.754Z,53.25
2019-05-25T06:44:46.327Z,25.52
2019-05-25T06:47:13.879Z,40.90
2019-05-25T06:49:41.434Z,62.93
2019-05-25T06:52:08.973Z,42.10
2019-05-25T06:54:36.533Z,23.47
2019-05-25T06:57:04.085Z,12.20
2019-05-25T06:59:32.309Z,16.37
2019-05-25T07:02:01.034Z,24.95
2019-05-25T07:04:28.744Z,42.05
2019-05-25T07:06:56.289Z,22.48
2019-05-25T07:09:23.863Z,23.00
2019-05-25T07:11:51.409Z,22.37
2019-05-25T07:14:18.992Z,19.87
2019-05-25T07:16:46.569Z,15.90
2019-05-25T07:19:14.149Z,21.05
2019-05-25T07:21:41.701Z,36.55
2019-05-25T07:24:09.256Z,19.92
2019-05-25T07:26:36.810Z,25.17
2019-05-25T07:29:04.361Z,24.87
2019-05-25T07:31:31.925Z,46.23
2019-05-25T07:33:59.474Z,50.00
2019-05-25T07:36:27.036Z,80.90
2019-05-25T07:38:54.587Z,77.90
2019-05-25T07:41:22.170Z,124.40
2019-05-25T07:43:49.731Z,89.92
2019-05-25T07:46:17.432Z,32.00
2019-05-25T07:48:45.215Z,16.65
2019-05-25T07:51:12.756Z,14.78
2019-05-25T07:53:40.382Z,12.07
2019-05-25T07:56:07.941Z,10.93
2019-05-25T07:58:35.493Z,15.75
2019-05-25T08:01:03.069Z,62.10
2019-05-25T08:03:30.608Z,40.38
2019-05-25T08:05:58.362Z,34.90
2019-05-25T08:08:25.910Z,118.90
2019-05-25T08:10:53.483Z,56.60
2019-05-25T08:13:21.031Z,37.93
2019-05-25T08:15:48.612Z,33.85
2019-05-25T08:18:16.134Z,27.07
2019-05-25T08:20:46.945Z,27.00
2019-05-25T08:23:12.919Z,17.12
2019-05-25T08:25:40.489Z,15.23
2019-05-25T08:28:08.075Z,26.10
2019-05-25T08:30:35.590Z,27.70
2019-05-25T08:33:03.177Z,28.60
2019-05-25T08:35:30.754Z,46.73
2019-05-25T08:37:58.336Z,40.95
2019-05-25T08:40:25.892Z,33.05
2019-05-25T08:42:53.454Z,36.93
2019-05-25T08:45:20.995Z,31.25
2019-05-25T08:47:48.561Z,16.02
2019-05-25T08:50:16.160Z,22.42
2019-05-25T08:52:43.787Z,20.30
2019-05-25T08:55:11.327Z,13.15
2019-05-25T08:57:38.956Z,11.70
2019-05-25T09:00:06.498Z,11.20
2019-05-25T09:02:34.037Z,11.05
2019-05-25T09:05:01.579Z,10.98
2019-05-25T09:07:29.139Z,9.38
2019-05-25T09:09:56.681Z,9.30
2019-05-25T09:12:24.238Z,8.28
2019-05-25T09:14:51.786Z,8.88
2019-05-25T09:17:19.341Z,7.95
2019-05-25T09:19:46.887Z,7.50
2019-05-25T09:22:14.455Z,7.35
2019-05-25T09:24:41.989Z,7.35
2019-05-25T09:27:09.541Z,7.08
2019-05-25T09:29:37.091Z,6.53
2019-05-25T09:32:07.005Z,7.75
2019-05-25T09:34:33.872Z,5.60
2019-05-25T09:46:47.088Z,11.48
2019-05-25T09:49:14.644Z,11.38
2019-05-25T09:51:42.187Z,11.38
2019-05-25T09:54:09.746Z,9.95
2019-05-25T09:56:37.282Z,10.03
2019-05-25T09:59:19.189Z,11.83
2019-05-25T10:01:34.180Z,10.40
2019-05-25T10:08:33.120Z,10.38
2019-05-25T10:11:02.635Z,8.60
2019-05-25T10:13:32.137Z,9.75
2019-05-25T10:16:01.640Z,10.15
2019-05-25T10:18:31.158Z,9.95
2019-05-25T10:21:00.648Z,10.15
2019-05-25T10:23:30.154Z,11.08
2019-05-25T10:25:59.661Z,9.58
2019-05-25T10:28:29.323Z,12.28
2019-05-25T10:30:58.813Z,10.48
2019-05-25T10:33:28.329Z,8.55
2019-05-25T10:35:57.823Z,7.62
2019-05-25T10:38:27.397Z,9.18
2019-05-25T10:40:58.588Z,9.58
2019-05-25T10:43:28.149Z,10.40
2019-05-25T10:45:57.641Z,9.65
2019-05-25T10:48:28.293Z,9.75
2019-05-25T10:50:57.789Z,10.80
2019-05-25T10:53:27.313Z,10.23
2019-05-25T10:55:56.884Z,9.75
2019-05-25T10:58:26.385Z,9.70
2019-05-25T11:00:55.875Z,9.15
2019-05-25T11:03:25.365Z,8.73
2019-05-25T11:05:54.939Z,9.30
2019-05-25T11:08:24.422Z,9.03
2019-05-25T11:10:53.919Z,7.97
2019-05-25T11:13:23.422Z,8.83
2019-05-25T11:15:54.179Z,9.10
2019-05-25T11:18:24.714Z,8.10
2019-05-25T11:20:54.225Z,7.92
2019-05-25T11:23:23.929Z,8.35
2019-05-25T11:25:53.443Z,8.58
2019-05-25T11:28:22.943Z,9.88
2019-05-25T11:30:52.531Z,9.95
2019-05-25T11:33:22.019Z,9.40
2019-05-25T11:35:51.614Z,8.78
2019-05-25T11:38:21.089Z,9.00
2019-05-25T11:40:50.605Z,9.90
2019-05-25T11:43:20.107Z,8.95
2019-05-25T11:45:49.648Z,9.25
2019-05-25T11:48:19.204Z,9.45
2019-05-25T11:50:48.719Z,9.15
2019-05-25T11:53:18.208Z,8.45
2019-05-25T11:55:47.818Z,8.95
2019-05-25T11:58:17.389Z,8.65
2019-05-25T12:00:46.970Z,8.95
2019-05-25T12:03:16.490Z,9.25
2019-05-25T12:05:46.006Z,9.58
2019-05-25T12:08:15.504Z,8.88
2019-05-25T12:10:45.023Z,9.80
2019-05-25T12:13:14.589Z,7.67
2019-05-25T12:15:44.109Z,8.58
2019-05-25T12:18:13.686Z,7.97
2019-05-25T12:20:43.191Z,8.48
2019-05-25T12:23:13.057Z,7.87
2019-05-25T12:25:42.810Z,7.85
2019-05-25T12:28:12.299Z,7.62
2019-05-25T12:30:41.887Z,7.05
2019-05-25T12:33:12.435Z,7.95
2019-05-25T12:35:45.020Z,8.00
2019-05-25T12:38:14.312Z,7.55
2019-05-25T12:40:53.358Z,8.33
2019-05-25T12:43:15.029Z,7.67
2019-05-25T12:45:44.615Z,8.28
2019-05-25T12:48:14.113Z,7.92
2019-05-25T12:50:43.613Z,6.85
2019-05-25T12:53:13.177Z,7.80
2019-05-25T12:55:43.696Z,7.50
2019-05-25T12:58:13.167Z,7.80
2019-05-25T13:00:55.169Z,7.33
2019-05-25T13:03:14.175Z,7.40
2019-05-25T13:05:43.737Z,6.80
2019-05-25T13:08:32.611Z,6.90
2019-05-25T13:11:02.154Z,6.53
2019-05-25T13:13:31.694Z,6.80
2019-05-25T13:16:01.218Z,6.50
2019-05-25T13:18:30.716Z,6.30
2019-05-25T13:21:00.380Z,6.53
2019-05-25T13:23:29.903Z,6.97
2019-05-25T13:25:59.426Z,6.92
2019-05-25T13:28:28.982Z,6.80
2019-05-25T13:31:10.717Z,7.62
2019-05-25T13:33:29.688Z,7.45
2019-05-25T13:35:59.188Z,6.70
2019-05-25T13:38:28.762Z,7.00
2019-05-25T13:40:58.252Z,8.35
2019-05-25T13:43:27.766Z,8.90
2019-05-25T13:45:57.252Z,8.33
2019-05-25T13:48:26.776Z,8.35
2019-05-25T13:50:56.320Z,7.55
2019-05-25T13:53:25.830Z,7.08
2019-05-25T13:55:55.315Z,7.17
2019-05-25T13:58:24.826Z,7.65
2019-05-25T14:00:54.424Z,6.67
2019-05-25T14:03:23.922Z,7.12
2019-05-25T14:05:53.468Z,6.50
2019-05-25T14:08:22.988Z,6.70
2019-05-25T14:10:52.474Z,5.80
2019-05-25T14:13:21.983Z,6.05
2019-05-25T14:16:06.255Z,5.80
2019-05-25T14:18:22.767Z,5.60
2019-05-25T14:20:52.268Z,6.30
2019-05-25T14:23:21.792Z,6.03
2019-05-25T14:25:51.274Z,5.78
2019-05-25T14:28:21.846Z,6.00
2019-05-25T14:30:51.334Z,5.67
2019-05-25T14:33:20.835Z,5.72
2019-05-25T14:35:50.321Z,5.78
2019-05-25T14:38:19.828Z,5.35
2019-05-25T14:40:49.389Z,6.15
2019-05-25T14:43:18.896Z,5.83
2019-05-25T14:46:07.795Z,5.95
2019-05-25T14:48:38.469Z,4.58
2019-05-25T14:51:07.996Z,4.22
2019-05-25T14:53:37.498Z,4.22
2019-05-25T14:56:07.053Z,4.85
2019-05-25T14:58:36.644Z,3.77
2019-05-25T15:01:06.178Z,3.92
2019-05-25T15:03:35.696Z,3.47
2019-05-25T15:06:05.450Z,3.72
2019-05-25T15:08:34.959Z,3.62
2019-05-25T15:11:04.586Z,4.03
2019-05-25T15:13:34.107Z,3.95
2019-05-25T15:16:03.667Z,4.40
2019-05-25T15:18:33.211Z,3.95
2019-05-25T15:21:02.661Z,4.20
2019-05-25T15:23:32.174Z,4.50
2019-05-25T15:26:01.676Z,5.22
2019-05-25T15:28:31.182Z,5.17
2019-05-25T15:31:00.677Z,5.00
2019-05-25T15:33:30.238Z,5.42
2019-05-25T15:35:59.764Z,5.20
2019-05-25T15:38:29.285Z,5.42
2019-05-25T15:40:58.853Z,6.20
2019-05-25T15:43:28.350Z,4.60
2019-05-25T15:45:57.839Z,5.03
2019-05-25T15:48:27.411Z,5.25
2019-05-25T15:50:56.976Z,7.40
2019-05-25T15:53:26.503Z,6.22
2019-05-25T15:55:57.210Z,7.20
2019-05-25T15:58:26.700Z,5.70
2019-05-25T16:00:56.278Z,6.50
2019-05-25T16:03:25.830Z,5.30
2019-05-25T16:05:55.418Z,5.47
2019-05-25T16:08:25.109Z,5.80
2019-05-25T16:10:54.621Z,6.30
2019-05-25T16:13:24.111Z,5.92
2019-05-25T16:15:53.628Z,5.55
2019-05-25T16:18:23.114Z,6.10
2019-05-25T16:20:53.681Z,5.72
2019-05-25T16:23:23.168Z,5.60
2019-05-25T16:25:52.681Z,5.28
2019-05-25T16:28:22.250Z,5.42
2019-05-25T16:30:51.752Z,5.20
2019-05-25T16:33:21.241Z,4.85
2019-05-25T16:35:50.754Z,5.35
2019-05-25T16:38:20.311Z,5.40
2019-05-25T16:40:49.901Z,5.35
2019-05-25T16:43:20.629Z,5.90
2019-05-25T16:45:50.163Z,5.78
2019-05-25T16:48:19.645Z,6.12
2019-05-25T16:50:49.225Z,5.58
2019-05-25T16:53:18.715Z,6.12
2019-05-25T16:55:48.237Z,6.05
2019-05-25T16:58:17.783Z,5.62
2019-05-25T17:00:47.364Z,6.80
2019-05-25T17:03:27.391Z,5.70
2019-05-25T17:05:48.192Z,6.47
2019-05-25T17:08:17.749Z,5.92
2019-05-25T17:10:47.245Z,6.28
2019-05-25T17:13:16.794Z,6.33
2019-05-25T17:15:46.310Z,5.90
2019-05-25T17:18:15.895Z,6.95
2019-05-25T17:20:45.417Z,6.87
2019-05-25T17:23:14.903Z,6.25
2019-05-25T17:25:44.533Z,6.62
2019-05-25T17:28:14.156Z,6.50
2019-05-25T17:30:45.453Z,7.28
2019-05-25T17:33:15.013Z,7.70
2019-05-25T17:35:44.762Z,7.53
2019-05-25T17:38:14.390Z,6.87
2019-05-25T17:40:44.050Z,7.03
2019-05-25T17:43:13.619Z,8.18
2019-05-25T17:45:43.246Z,6.58
2019-05-25T17:48:12.804Z,7.30
2019-05-25T17:50:42.385Z,7.97
2019-05-25T17:53:11.948Z,8.00
2019-05-25T17:55:41.527Z,8.30
2019-05-25T17:58:11.108Z,8.20
2019-05-25T18:00:44.021Z,7.75
2019-05-25T18:03:13.602Z,7.58
2019-05-25T18:05:43.168Z,7.80
2019-05-25T18:08:12.986Z,9.05
2019-05-25T18:10:52.654Z,9.00
2019-05-25T18:13:13.904Z,9.13
2019-05-25T18:15:43.402Z,9.13
2019-05-25T18:18:12.911Z,8.65
2019-05-25T18:20:42.424Z,9.05
2019-05-25T18:23:11.935Z,9.05
2019-05-25T18:25:41.482Z,7.80
2019-05-25T18:28:10.997Z,8.03
2019-05-25T18:30:40.491Z,8.18
2019-05-25T18:33:09.981Z,8.48
2019-05-25T18:35:39.466Z,7.72
2019-05-25T18:38:09.058Z,8.65
2019-05-25T18:40:38.548Z,8.48
2019-05-25T18:43:08.129Z,8.93
2019-05-25T18:45:37.623Z,8.38
2019-05-25T18:48:07.155Z,8.53
2019-05-25T18:50:36.642Z,7.75
2019-05-25T18:53:06.283Z,7.67
2019-05-25T18:55:35.909Z,8.50
2019-05-25T18:58:05.556Z,8.18
2019-05-25T19:00:35.120Z,7.70
2019-05-25T19:03:04.897Z,8.35
2019-05-25T19:05:34.391Z,8.95
2019-05-25T19:08:04.034Z,8.48
2019-05-25T19:10:33.600Z,9.85
2019-05-25T19:13:03.189Z,9.75
2019-05-25T19:15:32.696Z,9.45
2019-05-25T19:18:02.200Z,9.60
2019-05-25T19:20:31.769Z,9.78
2019-05-25T19:23:01.422Z,8.85
2019-05-25T19:25:30.985Z,9.60
2019-05-25T19:28:00.493Z,10.15
2019-05-25T19:30:30.020Z,10.03
2019-05-25T19:32:59.541Z,9.98
2019-05-25T19:35:29.104Z,9.83
2019-05-25T19:37:58.613Z,9.28
2019-05-25T19:40:28.109Z,9.95
2019-05-25T19:42:57.706Z,9.55
2019-05-25T19:45:27.194Z,9.68
2019-05-25T19:47:56.711Z,9.48
2019-05-25T19:50:26.285Z,10.05
2019-05-25T19:52:55.866Z,10.32
2019-05-25T19:55:25.366Z,10.82
2019-05-25T19:57:54.896Z,9.88
2019-05-25T20:00:24.698Z,9.78
2019-05-25T20:02:54.200Z,9.95
2019-05-25T20:05:23.786Z,10.32
2019-05-25T20:07:53.292Z,9.93
2019-05-25T20:10:22.983Z,9.95
2019-05-25T20:12:52.488Z,10.63
2019-05-25T20:15:22.146Z,10.05
2019-05-25T20:17:51.720Z,10.75
2019-05-25T20:20:21.496Z,10.23
2019-05-25T20:22:51.006Z,10.48
2019-05-25T20:25:20.674Z,10.95
2019-05-25T20:27:50.161Z,10.38
2019-05-25T20:30:20.328Z,10.60
2019-05-25T20:32:49.830Z,11.40
2019-05-25T20:35:32.313Z,11.80
2019-05-25T20:37:50.617Z,11.05
2019-05-25T20:40:20.134Z,11.95
2019-05-25T20:42:49.638Z,11.57
2019-05-25T20:45:19.298Z,11.33
2019-05-25T20:47:48.786Z,11.18
2019-05-25T20:50:18.439Z,10.88
2019-05-25T20:52:47.943Z,11.53
2019-05-25T20:55:17.576Z,10.90
2019-05-25T20:57:47.155Z,11.20
2019-05-25T21:00:17.007Z,11.93
2019-05-25T21:03:04.332Z,11.78
2019-05-25T21:05:17.713Z,12.65
2019-05-25T21:07:48.417Z,11.33
2019-05-25T21:10:18.076Z,9.60
2019-05-25T21:12:47.571Z,9.03
2019-05-25T21:15:17.221Z,9.00
2019-05-25T21:17:46.703Z,9.75
2019-05-25T21:20:16.396Z,10.95
2019-05-25T21:22:45.883Z,9.35
2019-05-25T21:25:17.456Z,9.50
2019-05-25T21:27:48.099Z,9.58
2019-05-25T21:30:19.930Z,9.53
2019-05-25T21:32:49.421Z,10.28
2019-05-25T21:35:19.027Z,9.28
2019-05-25T21:37:48.567Z,9.10
2019-05-25T21:40:18.164Z,9.63
2019-05-25T21:42:47.667Z,9.20
2019-05-25T21:45:17.364Z,9.30
2019-05-25T21:47:46.893Z,9.28
2019-05-25T21:50:16.536Z,8.33
2019-05-25T21:52:46.031Z,9.13
2019-05-25T21:55:15.685Z,8.90
2019-05-25T21:57:45.263Z,9.53
2019-05-25T22:00:15.416Z,9.78
2019-05-25T22:02:46.503Z,9.85
2019-05-25T22:05:16.630Z,9.70
2019-05-25T22:07:46.130Z,9.28
2019-05-25T22:10:15.706Z,8.80
2019-05-25T22:12:45.194Z,9.05
2019-05-25T22:15:14.954Z,9.13
2019-05-25T22:17:44.452Z,9.68
2019-05-25T22:20:15.964Z,8.43
2019-05-25T22:22:45.462Z,9.78
2019-05-25T22:25:15.158Z,9.70
2019-05-25T22:27:44.749Z,9.13
2019-05-25T22:30:15.346Z,9.33
2019-05-25T22:32:44.869Z,9.55
2019-05-25T22:35:14.491Z,8.95
2019-05-25T22:37:44.134Z,8.05
2019-05-25T22:40:14.378Z,9.53
2019-05-25T22:42:43.888Z,9.40
2019-05-25T22:45:13.502Z,8.53
2019-05-25T22:47:44.176Z,9.58
2019-05-25T22:50:14.838Z,9.03
2019-05-25T22:52:44.348Z,8.90
2019-05-25T22:55:13.912Z,8.78
2019-05-25T22:57:43.487Z,9.43
2019-05-25T23:00:13.156Z,8.93
2019-05-25T23:02:42.654Z,8.68
2019-05-25T23:05:12.377Z,8.65
2019-05-25T23:07:41.888Z,9.73
2019-05-25T23:10:12.323Z,9.23
2019-05-25T23:12:41.845Z,9.70
2019-05-25T23:15:11.870Z,9.78
2019-05-25T23:17:41.525Z,8.80
2019-05-25T23:20:11.427Z,10.15
2019-05-25T23:22:42.016Z,10.10
2019-05-25T23:25:12.507Z,8.98
2019-05-25T23:27:42.021Z,9.88
2019-05-25T23:30:11.661Z,9.68
2019-05-25T23:32:41.169Z,9.45
2019-05-25T23:35:10.813Z,10.03
2019-05-25T23:37:40.323Z,9.55
2019-05-25T23:40:10.725Z,10.38
2019-05-25T23:42:40.314Z,9.20
2019-05-25T23:45:10.209Z,9.23
2019-05-25T23:47:39.713Z,9.60
2019-05-25T23:50:09.963Z,10.28
2019-05-25T23:52:39.485Z,9.75
2019-05-25T23:55:09.403Z,9.10
2019-05-25T23:57:38.897Z,9.10
